Time;durP1;ratioP1;P1;durP2;ratioP2;P2;SDS_P1;SDS_P2;PMS_P1;PMS_P2;Temp;Humidity;BMP_temperature;BMP_pressure;BME280_temperature;BME280_humidity;BME280_pressure;Samples;Min_cycle;Max_cycle;Signal;HPM_P1;HPM_P2
2022/04/23 00:01:42;;;;;;;19.65;9.55;;;;;;;11.86;68.48;96965.69;4984318;28;20033;-83
2022/04/23 00:04:12;;;;;;;13.13;8.43;;;;;;;11.83;68.46;96961.44;4984474;28;20023;-83
2022/04/23 00:06:38;;;;;;;14.02;8.82;;;;;;;11.69;68.96;96958.66;4992001;28;20218;-83
2022/04/23 00:09:06;;;;;;;20.67;9.93;;;;;;;11.61;69.33;96955.50;4984421;28;20031;-83
2022/04/23 00:11:32;;;;;;;14.18;8.55;;;;;;;11.62;69.34;96965.19;4984297;28;20026;-83
2022/04/23 00:13:58;;;;;;;16.08;8.63;;;;;;;11.56;69.59;96962.81;4983287;28;20341;-83
2022/04/23 00:16:24;;;;;;;12.30;8.10;;;;;;;11.56;69.55;96962.81;4983258;28;20019;-83
2022/04/23 00:18:51;;;;;;;14.77;9.55;;;;;;;11.48;69.96;96954.41;4983091;28;20076;-83
2022/04/23 00:21:18;;;;;;;15.65;9.15;;;;;;;11.45;70.03;96965.09;4983102;28;20102;-83
2022/04/23 00:23:48;;;;;;;19.27;10.10;;;;;;;11.39;70.20;96960.13;4984108;28;20045;-83
2022/04/23 00:26:14;;;;;;;15.65;9.10;;;;;;;11.37;70.64;96971.69;4982987;28;20032;-83
2022/04/23 00:28:39;;;;;;;14.00;9.40;;;;;;;11.34;70.92;96967.41;4983124;28;20030;-83
2022/04/23 00:31:05;;;;;;;14.52;9.93;;;;;;;11.36;70.75;96970.81;4984055;28;20038;-83
2022/04/23 00:33:32;;;;;;;14.60;9.32;;;;;;;11.35;70.65;96973.53;4983018;28;20263;-83
2022/04/23 00:35:57;;;;;;;23.17;9.85;;;;;;;11.31;71.35;96971.97;4982885;28;20373;-83
2022/04/23 00:38:24;;;;;;;18.08;10.63;;;;;;;11.19;71.71;96973.41;4984135;28;20090;-83
2022/04/23 00:40:50;;;;;;;16.85;8.85;;;;;;;11.14;71.59;96975.44;4985231;28;20022;-83
2022/04/23 00:43:27;;;;;;;16.73;9.80;;;;;;;11.08;71.78;96970.47;4987394;28;20094;-83
2022/04/23 00:45:53;;;;;;;19.27;11.30;;;;;;;11.05;72.17;96970.59;4986421;28;20046;-83
2022/04/23 00:48:18;;;;;;;18.10;10.35;;;;;;;11.03;72.40;96972.44;4986227;28;20027;-83
2022/04/23 00:50:44;;;;;;;21.33;10.43;;;;;;;10.98;72.80;96962.13;4986339;28;20022;-83
2022/04/23 00:53:11;;;;;;;16.83;10.32;;;;;;;10.97;72.47;96961.38;4986311;28;20018;-83
2022/04/23 00:55:36;;;;;;;16.30;9.70;;;;;;;10.89;72.69;96962.56;4986266;28;20230;-83
2022/04/23 00:58:03;;;;;;;15.25;9.18;;;;;;;10.82;72.82;96957.66;4986062;28;20019;-83
2022/04/23 01:00:29;;;;;;;15.52;10.43;;;;;;;10.80;73.09;96946.38;4987169;28;20253;-83
2022/04/23 01:02:55;;;;;;;20.63;10.55;;;;;;;10.70;73.42;96942.47;4987175;28;20030;-83
2022/04/23 01:05:24;;;;;;;19.10;10.45;;;;;;;10.67;73.79;96934.72;4987286;28;20022;-83
2022/04/23 01:07:52;;;;;;;17.77;10.40;;;;;;;10.73;73.54;96942.31;4985907;28;20034;-83
2022/04/23 01:10:19;;;;;;;16.40;10.13;;;;;;;10.65;73.92;96940.03;4986014;28;20318;-83
2022/04/23 01:12:45;;;;;;;18.08;10.48;;;;;;;10.62;74.21;96939.31;5002133;28;20381;-83
2022/04/23 01:15:13;;;;;;;18.52;10.63;;;;;;;10.65;74.02;96939.19;4987079;28;20029;-83
2022/04/23 01:17:39;;;;;;;20.38;11.30;;;;;;;10.59;74.09;96939.44;4987001;28;20334;-83
2022/04/23 01:20:07;;;;;;;16.88;9.68;;;;;;;10.51;74.75;96946.88;4985668;28;20026;-83
2022/04/23 01:22:33;;;;;;;16.55;10.10;;;;;;;10.56;74.49;96944.84;4986757;28;20273;-83
2022/04/23 01:25:00;;;;;;;21.40;11.25;;;;;;;10.60;74.21;96947.28;4985420;28;20051;-83
2022/04/23 01:27:29;;;;;;;16.85;11.15;;;;;;;10.48;74.69;96941.75;4985766;28;20049;-82
2022/04/23 01:29:58;;;;;;;21.27;10.52;;;;;;;10.47;74.86;96950.53;4986809;28;20073;-82
2022/04/23 01:32:24;;;;;;;16.00;10.07;;;;;;;10.34;75.40;96955.50;4986620;28;20031;-82
2022/04/23 01:34:49;;;;;;;23.25;10.82;;;;;;;10.32;75.46;96956.50;4986748;28;20034;-82
2022/04/23 01:37:17;;;;;;;17.10;10.57;;;;;;;10.36;75.52;96947.53;4985377;28;20352;-82
2022/04/23 01:39:44;;;;;;;22.42;10.73;;;;;;;10.23;76.09;96947.25;4986684;28;20023;-82
2022/04/23 01:42:09;;;;;;;17.90;10.13;;;;;;;10.20;76.14;96941.28;4985305;28;20033;-82
2022/04/23 01:44:35;;;;;;;19.10;10.32;;;;;;;10.22;76.20;96949.97;4985288;28;20030;-82
2022/04/23 01:47:00;;;;;;;20.40;10.70;;;;;;;10.15;76.67;96943.25;4986470;28;20078;-82
2022/04/23 01:49:26;;;;;;;17.23;11.60;;;;;;;10.09;76.81;96944.38;4986140;28;20057;-82
2022/04/23 01:51:51;;;;;;;23.55;11.25;;;;;;;10.06;77.11;96944.50;4985595;28;20027;-82
2022/04/23 01:54:17;;;;;;;18.25;10.88;;;;;;;10.04;77.53;96948.97;4984732;28;20038;-82
2022/04/23 01:56:42;;;;;;;17.90;10.65;;;;;;;10.09;76.95;96951.38;4985168;28;20054;-83
2022/04/23 01:59:08;;;;;;;16.85;10.50;;;;;;;10.20;76.49;96947.41;4985120;28;20340;-83
2022/04/23 02:01:36;;;;;;;17.35;11.13;;;;;;;10.13;77.16;96945.94;4984958;28;20069;-83
2022/04/23 02:04:01;;;;;;;19.10;11.32;;;;;;;10.20;76.98;96946.53;4984856;28;20116;-83
2022/04/23 02:06:28;;;;;;;19.05;10.95;;;;;;;10.11;77.19;96947.78;4984961;28;20018;-83
2022/04/23 02:08:54;;;;;;;20.80;11.52;;;;;;;10.03;77.55;96954.28;4985993;28;20203;-83
2022/04/23 02:11:19;;;;;;;19.75;11.45;;;;;;;9.98;77.76;96958.88;4984883;28;20050;-83
2022/04/23 02:13:46;;;;;;;21.10;12.02;;;;;;;9.94;77.98;96960.78;4986196;28;20030;-83
2022/04/23 02:16:11;;;;;;;19.02;10.98;;;;;;;9.97;77.62;96954.53;4985664;28;20052;-83
2022/04/23 02:18:39;;;;;;;17.88;10.80;;;;;;;10.04;77.69;96958.59;4985905;28;20029;-83
2022/04/23 02:21:05;;;;;;;20.35;11.55;;;;;;;10.00;77.82;96964.94;4985779;28;20072;-83
2022/04/23 02:23:32;;;;;;;19.25;10.70;;;;;;;9.94;77.86;96959.94;4984267;28;20031;-83
2022/04/23 02:25:58;;;;;;;19.83;11.02;;;;;;;9.94;77.58;96959.94;4984437;28;20049;-83
2022/04/23 02:28:23;;;;;;;24.38;12.07;;;;;;;9.97;77.74;96954.53;4984487;28;20192;-83
2022/04/23 02:30:49;;;;;;;18.77;10.65;;;;;;;9.92;78.09;96956.50;4984436;28;20093;-83
2022/04/23 02:33:15;;;;;;;20.33;11.80;;;;;;;9.90;78.23;96963.63;4985629;28;20062;-83
2022/04/23 02:35:40;;;;;;;20.48;12.10;;;;;;;9.89;78.30;96956.63;4984420;28;20031;-83
2022/04/23 02:38:06;;;;;;;20.27;11.77;;;;;;;9.84;78.28;96958.63;4984522;28;20114;-83
2022/04/23 02:40:31;;;;;;;19.80;11.27;;;;;;;9.75;78.65;96959.84;4984189;28;20022;-83
2022/04/23 02:42:57;;;;;;;18.88;12.00;;;;;;;9.77;78.41;96965.03;4984156;28;20322;-83
2022/04/23 02:45:24;;;;;;;20.85;11.13;;;;;;;9.69;79.15;96965.38;4977497;28;20054;-83
2022/04/23 02:47:55;;;;;;;18.48;11.93;;;;;;;9.71;79.08;96967.94;4984191;28;20023;-83
2022/04/23 02:50:28;;;;;;;19.05;11.45;;;;;;;9.80;78.64;96972.78;4984017;28;21293;-83
2022/04/23 02:52:57;;;;;;;20.17;11.75;;;;;;;9.75;78.99;96969.53;4985294;28;20050;-83
2022/04/23 02:55:27;;;;;;;20.15;11.05;;;;;;;9.67;79.41;96971.59;4983991;28;20041;-83
2022/04/23 02:57:53;;;;;;;20.73;11.95;;;;;;;9.63;79.14;96970.03;4985258;28;20019;-83
2022/04/23 03:00:19;;;;;;;20.83;10.90;;;;;;;9.54;79.57;96960.78;5000141;28;20025;-83
2022/04/23 03:02:47;;;;;;;18.73;10.95;;;;;;;9.52;80.22;96959.13;4983934;28;20097;-83
2022/04/23 03:05:16;;;;;;;18.45;11.77;;;;;;;9.49;79.96;96964.50;4983677;28;20106;-83
2022/04/23 03:07:43;;;;;;;20.55;12.00;;;;;;;9.43;80.12;96962.13;4984824;28;20250;-83
2022/04/23 03:10:10;;;;;;;20.35;11.38;;;;;;;9.30;80.62;96960.94;4983915;28;20029;-83
2022/04/23 03:12:36;;;;;;;18.40;11.05;;;;;;;9.20;81.05;96964.84;4984909;28;20022;-83
2022/04/23 03:15:04;;;;;;;22.08;12.48;;;;;;;9.03;81.85;96970.75;4984998;28;20046;-83
2022/04/23 03:17:31;;;;;;;22.85;12.02;;;;;;;8.89;82.21;96965.19;4983783;28;20101;-83
2022/04/23 03:19:57;;;;;;;20.60;11.63;;;;;;;8.72;82.49;96968.50;4983657;28;20229;-83
2022/04/23 03:22:22;;;;;;;23.00;12.95;;;;;;;8.56;83.40;96964.75;4983549;28;20054;-83
2022/04/23 03:24:48;;;;;;;21.63;12.45;;;;;;;8.48;84.58;96964.16;4983575;28;20097;-83
2022/04/23 03:27:13;;;;;;;23.92;12.88;;;;;;;8.41;84.88;96957.44;4983634;28;20037;-83
2022/04/23 03:29:39;;;;;;;21.35;11.77;;;;;;;8.40;85.06;96963.59;4984818;28;20030;-83
2022/04/23 03:32:05;;;;;;;21.35;11.90;;;;;;;8.37;85.14;96961.09;4984614;28;20026;-83
2022/04/23 03:34:31;;;;;;;25.25;12.45;;;;;;;8.37;85.56;96963.72;4984644;28;20034;-83
2022/04/23 03:36:57;;;;;;;20.88;12.38;;;;;;;8.39;85.61;96958.41;4983572;28;20318;-83
2022/04/23 03:39:22;;;;;;;17.75;11.18;;;;;;;8.36;85.40;96958.53;4983408;28;20022;-83
2022/04/23 03:41:48;;;;;;;20.50;11.50;;;;;;;8.24;85.44;96949.38;4983592;28;20042;-83
2022/04/23 03:44:13;;;;;;;21.95;12.68;;;;;;;8.10;84.92;96948.97;4983799;28;20030;-83
2022/04/23 03:46:38;;;;;;;21.73;13.20;;;;;;;7.86;85.65;96947.25;4983734;28;20023;-83
2022/04/23 03:49:05;;;;;;;30.65;12.80;;;;;;;7.75;86.11;96945.91;4983724;28;20023;-83
2022/04/23 03:51:30;;;;;;;16.95;10.95;;;;;;;7.70;85.96;96946.06;4983730;28;20018;-83
2022/04/23 03:53:55;;;;;;;20.95;11.43;;;;;;;7.58;86.72;96936.00;4984412;28;20054;-83
2022/04/23 03:56:21;;;;;;;20.13;11.77;;;;;;;7.53;87.42;96931.84;4984566;28;20022;-82
2022/04/23 03:58:46;;;;;;;22.33;12.52;;;;;;;7.58;88.04;96938.63;4983255;28;20038;-82
2022/04/23 04:01:12;;;;;;;19.55;11.38;;;;;;;7.51;87.10;96928.41;4983423;28;20026;-83
2022/04/23 04:03:37;;;;;;;22.15;11.77;;;;;;;7.20;87.06;96926.00;4984298;28;20082;-83
2022/04/23 04:06:03;;;;;;;22.23;12.98;;;;;;;7.06;88.64;96924.72;4983384;28;20019;-83
2022/04/23 04:08:28;;;;;;;22.17;13.45;;;;;;;7.06;89.66;96928.22;4984456;28;20058;-83
2022/04/23 04:10:54;;;;;;;23.10;12.25;;;;;;;7.10;89.55;96927.19;4984253;28;20074;-83
2022/04/23 04:13:20;;;;;;;19.83;11.75;;;;;;;7.09;89.13;96920.22;4983293;28;20303;-83
2022/04/23 04:15:46;;;;;;;21.50;11.50;;;;;;;7.03;89.32;96917.84;4984233;28;20322;-83
2022/04/23 04:18:13;;;;;;;28.15;13.23;;;;;;;7.10;90.01;96926.34;4986884;28;20026;-83
2022/04/23 04:20:40;;;;;;;22.85;12.98;;;;;;;7.13;90.54;96914.03;4987948;28;20026;-83
2022/04/23 04:23:08;;;;;;;24.45;11.75;;;;;;;7.19;91.15;96911.22;4986575;28;20381;-83
2022/04/23 04:25:34;;;;;;;20.67;11.57;;;;;;;7.13;90.65;96916.63;4987778;28;20066;-83
2022/04/23 04:28:00;;;;;;;25.33;14.23;;;;;;;7.08;90.56;96913.31;4986600;28;20025;-83
2022/04/23 04:30:26;;;;;;;22.95;13.23;;;;;;;6.99;90.34;96908.38;4986951;28;20332;-83
2022/04/23 04:32:51;;;;;;;20.27;12.68;;;;;;;7.28;91.75;96905.63;4986603;28;20019;-83
2022/04/23 04:35:17;;;;;;;21.25;12.18;;;;;;;7.48;91.72;96913.69;4986678;28;20022;-83
2022/04/23 04:37:43;;;;;;;19.45;11.43;;;;;;;7.44;89.70;96911.22;4987601;28;20023;-83
2022/04/23 04:40:09;;;;;;;21.13;12.27;;;;;;;7.49;90.04;96907.53;4987633;28;20046;-83
2022/04/23 04:42:34;;;;;;;26.08;13.23;;;;;;;7.52;90.67;96910.03;4986425;28;20023;-83
2022/04/23 04:45:01;;;;;;;21.02;11.57;;;;;;;7.72;91.73;96912.81;4987520;28;20041;-83
2022/04/23 04:47:26;;;;;;;21.98;11.70;;;;;;;7.63;89.98;96913.13;4985953;28;20066;-84
2022/04/23 04:49:51;;;;;;;24.30;12.63;;;;;;;7.70;89.75;96914.66;4986322;28;20034;-83
2022/04/23 04:52:17;;;;;;;20.05;12.52;;;;;;;7.78;89.85;96928.31;4986364;28;20053;-83
2022/04/23 04:54:42;;;;;;;25.25;12.88;;;;;;;7.94;90.07;96923.41;4985303;28;20023;-84
2022/04/23 04:57:08;;;;;;;23.02;13.80;;;;;;;7.99;90.44;96927.56;5000305;28;20057;-84
2022/04/23 04:59:34;;;;;;;21.83;13.23;;;;;;;8.09;91.04;96931.53;4986250;28;20027;-84
2022/04/23 05:02:01;;;;;;;20.23;11.75;;;;;;;8.25;91.02;96930.09;4986153;28;20084;-84
2022/04/23 05:04:27;;;;;;;22.00;12.93;;;;;;;8.25;89.22;96940.59;4986022;28;20022;-84
2022/04/23 05:06:52;;;;;;;19.83;11.25;;;;;;;8.44;89.31;96945.97;4987234;28;20049;-84
2022/04/23 05:09:17;;;;;;;19.35;11.80;;;;;;;8.63;88.96;96947.84;4987168;28;20262;-84
2022/04/23 05:11:43;;;;;;;22.25;12.70;;;;;;;8.94;88.62;96957.13;4985936;28;20046;-84
2022/04/23 05:14:09;;;;;;;20.70;11.27;;;;;;;9.08;87.66;96955.69;4987062;28;20023;-84
2022/04/23 05:16:35;;;;;;;21.30;12.27;;;;;;;9.09;85.36;96946.91;4986978;28;20034;-84
2022/04/23 05:19:00;;;;;;;19.45;10.80;;;;;;;9.41;86.03;96953.47;4985934;28;20019;-84
2022/04/23 05:21:25;;;;;;;17.13;10.77;;;;;;;9.63;84.87;96954.28;4986894;28;20253;-84
2022/04/23 05:23:51;;;;;;;18.95;11.60;;;;;;;9.88;83.97;96962.81;4986652;28;20073;-83
2022/04/23 05:26:16;;;;;;;20.13;11.57;;;;;;;10.20;82.75;96970.19;4985359;28;20282;-84
2022/04/23 05:28:42;;;;;;;20.67;10.15;;;;;;;10.58;81.22;96971.97;4985518;28;20222;-84
2022/04/23 05:31:08;;;;;;;17.85;11.05;;;;;;;10.57;80.55;96970.25;4985578;28;20031;-83
2022/04/23 05:33:35;;;;;;;22.20;11.95;;;;;;;10.64;81.32;96974.31;4986731;28;20018;-83
2022/04/23 05:36:01;;;;;;;16.35;10.02;;;;;;;10.75;80.53;96977.28;4985595;28;20062;-83
2022/04/23 05:38:26;;;;;;;19.05;10.68;;;;;;;10.94;80.02;96979.00;4986454;28;20337;-83
2022/04/23 05:40:52;;;;;;;22.65;11.20;;;;;;;11.31;78.52;96988.63;4985483;28;20023;-83
2022/04/23 05:43:17;;;;;;;21.13;11.32;;;;;;;11.54;77.29;96995.41;4986676;28;20214;-84
2022/04/23 05:45:43;;;;;;;20.10;10.15;;;;;;;11.70;76.73;96996.38;4986782;28;20061;-84
2022/04/23 05:48:09;;;;;;;19.02;9.88;;;;;;;11.97;76.17;96995.88;4986725;28;20073;-84
2022/04/23 05:50:34;;;;;;;15.55;9.90;;;;;;;12.04;75.16;96992.00;4985596;28;20318;-84
2022/04/23 05:53:00;;;;;;;16.75;9.43;;;;;;;11.96;75.32;96993.31;4985484;28;20334;-84
2022/04/23 05:55:25;;;;;;;17.05;10.20;;;;;;;12.39;74.78;97009.50;4986205;28;20026;-84
2022/04/23 05:57:51;;;;;;;17.42;9.63;;;;;;;12.32;74.68;97013.38;4985083;28;20030;-84
2022/04/23 06:00:17;;;;;;;18.67;9.25;;;;;;;12.38;74.27;97002.53;4986261;28;20038;-84
2022/04/23 06:02:43;;;;;;;16.50;9.45;;;;;;;11.98;75.33;96997.59;4984887;28;20348;-84
2022/04/23 06:05:10;;;;;;;18.83;9.23;;;;;;;12.00;76.05;97006.28;4984968;28;20029;-85
2022/04/23 06:07:36;;;;;;;21.95;8.73;;;;;;;12.19;75.39;97004.41;4986125;28;20027;-84
2022/04/23 06:10:01;;;;;;;15.32;8.98;;;;;;;12.07;76.00;97010.31;4984831;28;20081;-84
2022/04/23 06:12:27;;;;;;;19.70;9.85;;;;;;;12.26;75.54;97002.28;4984843;28;20089;-84
2022/04/23 06:14:52;;;;;;;15.98;9.30;;;;;;;12.22;75.72;97006.84;4984745;28;20026;-84
2022/04/23 06:17:24;;;;;;;20.70;9.38;;;;;;;12.37;75.55;97011.34;4984822;28;20019;-85
2022/04/23 06:19:49;;;;;;;15.40;9.18;;;;;;;12.68;74.27;97018.50;4984951;28;20057;-85
2022/04/23 06:22:15;;;;;;;13.98;8.52;;;;;;;12.95;73.18;97015.22;4984363;28;20030;-85
2022/04/23 06:24:40;;;;;;;13.45;8.95;;;;;;;13.06;72.27;97016.50;4984557;28;20049;-85
2022/04/23 06:27:06;;;;;;;14.82;8.45;;;;;;;12.90;72.99;97022.56;4984336;28;20097;-85
2022/04/23 06:29:31;;;;;;;15.00;9.05;;;;;;;12.81;72.89;97016.91;4985710;28;20077;-85
2022/04/23 06:31:56;;;;;;;13.13;8.20;;;;;;;12.85;73.41;97019.31;4985727;28;20033;-85
2022/04/23 06:34:22;;;;;;;12.32;7.85;;;;;;;12.90;72.84;97022.56;4984396;28;20066;-85
2022/04/23 06:36:47;;;;;;;12.70;7.95;;;;;;;12.83;72.84;97021.19;4981365;28;20057;-85
2022/04/23 06:39:13;;;;;;;13.15;8.30;;;;;;;13.06;72.72;97027.06;4992731;28;20357;-85
2022/04/23 06:41:38;;;;;;;15.00;8.02;;;;;;;13.27;72.15;97025.88;5000805;28;20030;-85
2022/04/23 06:44:04;;;;;;;14.18;7.97;;;;;;;13.36;71.27;97022.72;4975292;28;20031;-85
2022/04/23 06:46:29;;;;;;;16.20;7.72;;;;;;;13.42;71.32;97025.03;4978165;28;20093;-85
2022/04/23 06:48:55;;;;;;;12.90;7.38;;;;;;;13.63;70.52;97031.72;4984337;28;20026;-85
2022/04/23 06:51:21;;;;;;;11.63;6.75;;;;;;;13.68;70.40;97021.75;4978976;28;20313;-85
2022/04/23 06:53:46;;;;;;;12.65;7.18;;;;;;;13.93;70.29;97032.63;4982495;28;20019;-85
2022/04/23 06:56:12;;;;;;;10.93;7.03;;;;;;;13.96;69.12;97032.44;4980529;28;20073;-86
2022/04/23 06:58:37;;;;;;;11.98;7.22;;;;;;;14.04;68.24;97038.13;4983235;28;20066;-86
2022/04/23 07:01:03;;;;;;;12.27;6.80;;;;;;;14.00;68.71;97031.31;4984104;28;20022;-85
2022/04/23 07:03:29;;;;;;;10.05;5.97;;;;;;;13.99;67.70;97038.41;4983949;28;20034;-85
2022/04/23 07:05:55;;;;;;;12.50;7.15;;;;;;;14.51;67.68;97036.22;4983863;28;20102;-85
2022/04/23 07:08:20;;;;;;;12.45;7.60;;;;;;;14.83;65.70;97038.63;4983912;28;20022;-85
2022/04/23 07:10:45;;;;;;;11.52;6.60;;;;;;;15.68;63.53;97039.41;4983924;28;20058;-85
2022/04/23 07:13:14;;;;;;;11.77;6.78;;;;;;;16.13;61.95;97040.81;4983046;28;20070;-85
2022/04/23 07:15:39;;;;;;;11.57;7.40;;;;;;;15.78;62.25;97029.88;4980253;28;20217;-85
2022/04/23 07:18:06;;;;;;;11.52;6.60;;;;;;;15.83;62.29;97027.78;4983663;28;20041;-85
2022/04/23 07:20:32;;;;;;;10.85;6.95;;;;;;;15.75;62.91;97023.94;4984792;28;20336;-85
2022/04/23 07:25:52;;;;;;;11.18;7.15;;;;;;;15.31;63.31;97024.09;4980935;28;20326;-84
2022/04/23 07:28:20;;;;;;;9.65;6.82;;;;;;;15.39;63.91;97032.47;4982130;28;20030;-85
2022/04/23 07:30:47;;;;;;;11.90;7.68;;;;;;;15.13;64.64;97019.97;4998861;28;20307;-85
2022/04/23 07:37:28;;;;;;;13.10;7.38;;;;;;;14.71;64.88;97022.63;4999868;28;20018;-85
2022/04/23 07:38:42;;;;;;;12.23;7.20;;;;;;;14.53;66.45;97023.75;4984740;28;20029;-86
2022/04/23 07:41:08;;;;;;;12.40;6.95;;;;;;;14.49;66.29;97030.19;4972266;28;20047;-86
2022/04/23 07:43:34;;;;;;;12.07;7.00;;;;;;;14.67;65.89;97037.00;4988458;28;20027;-86
2022/04/23 07:45:59;;;;;;;12.68;6.93;;;;;;;14.54;65.04;97021.00;4975589;28;20050;-86
2022/04/23 07:48:24;;;;;;;12.15;7.53;;;;;;;14.53;66.20;97035.16;4973699;28;20034;-86
2022/04/23 07:50:50;;;;;;;11.00;7.45;;;;;;;14.35;67.06;97030.13;4992142;28;20027;-86
2022/04/23 07:53:15;;;;;;;10.60;6.97;;;;;;;14.89;65.68;97032.09;4979831;28;20319;-86
2022/04/23 07:55:41;;;;;;;9.85;6.63;;;;;;;15.45;65.19;97042.69;4977287;28;20042;-88
2022/04/23 07:58:09;;;;;;;12.00;7.55;;;;;;;15.51;63.41;97037.00;4979519;28;20022;-88
2022/04/23 08:00:35;;;;;;;11.90;7.32;;;;;;;15.31;63.24;97039.16;4979324;28;20337;-87
2022/04/23 08:03:04;;;;;;;10.75;7.18;;;;;;;15.29;63.89;97035.75;4990260;28;20023;-87
2022/04/23 08:05:32;;;;;;;12.60;7.03;;;;;;;15.36;63.66;97039.72;4973052;28;20106;-89
2022/04/23 08:07:58;;;;;;;9.38;6.57;;;;;;;15.30;64.14;97050.69;5004866;28;20026;-88
2022/04/23 08:10:25;;;;;;;11.18;7.05;;;;;;;15.19;63.55;97030.19;4983625;28;20106;-87
2022/04/23 08:12:50;;;;;;;12.25;7.38;;;;;;;14.99;65.43;97030.56;4988163;28;20025;-88
2022/04/23 08:15:16;;;;;;;13.75;7.22;;;;;;;14.93;65.38;97039.75;4988215;28;20022;-88
2022/04/23 08:17:41;;;;;;;10.75;7.10;;;;;;;14.75;65.31;97024.16;4985115;28;20025;-88
2022/04/23 08:20:08;;;;;;;10.30;6.72;;;;;;;14.95;64.57;97063.50;4973985;28;20023;-87
2022/04/23 08:22:34;;;;;;;11.40;7.22;;;;;;;15.04;64.32;97033.78;4969506;28;20031;-87
2022/04/23 08:25:00;;;;;;;10.68;7.03;;;;;;;15.00;65.28;97030.47;4968328;28;20055;-88
2022/04/23 08:27:26;;;;;;;10.20;6.28;;;;;;;15.19;64.95;97038.16;4968512;29;20391;-87
2022/04/23 08:32:35;;;;;;;10.85;6.95;;;;;;;15.59;62.91;97049.72;4989797;28;20115;-88
2022/04/23 08:35:04;;;;;;;8.57;5.93;;;;;;;15.49;63.00;97049.47;4988919;28;20035;-88
2022/04/23 08:37:29;;;;;;;8.90;5.72;;;;;;;15.38;62.54;97053.78;4988674;28;20369;-88
2022/04/23 08:39:55;;;;;;;9.38;6.03;;;;;;;15.18;64.28;97054.16;4989845;28;20023;-88
2022/04/23 08:42:20;;;;;;;9.95;6.03;;;;;;;15.53;63.33;97061.59;4987993;28;20138;-87
2022/04/23 08:44:46;;;;;;;8.93;6.25;;;;;;;15.83;62.76;97066.72;4986955;28;20190;-88
2022/04/23 08:47:11;;;;;;;9.48;5.85;;;;;;;15.90;62.10;97066.25;4987725;28;20053;-88
2022/04/23 08:49:42;;;;;;;9.57;5.68;;;;;;;15.79;62.44;97058.09;4988141;28;20042;-87
2022/04/23 08:52:18;;;;;;;9.63;5.63;;;;;;;16.23;61.55;97079.94;4970865;28;20091;-88
2022/04/23 08:54:44;;;;;;;9.45;5.63;;;;;;;16.41;60.47;97068.09;4986746;28;20045;-87
2022/04/23 08:57:10;;;;;;;6.82;5.13;;;;;;;16.79;60.41;97074.34;4986844;28;20098;-88
2022/04/23 08:59:36;;;;;;;8.73;5.90;;;;;;;17.17;58.23;97067.22;4981530;28;20034;-88
2022/04/23 09:02:03;;;;;;;10.00;5.97;;;;;;;17.00;57.72;97072.03;4983894;28;20022;-88
2022/04/23 09:04:29;;;;;;;13.93;6.13;;;;;;;17.39;57.77;97084.31;4986899;28;20022;-88
2022/04/23 09:06:54;;;;;;;7.95;5.63;;;;;;;16.81;58.32;97077.72;4987064;28;20022;-87
2022/04/23 09:09:21;;;;;;;10.38;6.03;;;;;;;16.96;58.40;97076.69;4987427;28;20025;-88
2022/04/23 09:11:58;;;;;;;10.13;5.75;;;;;;;17.23;57.86;97080.09;4987810;28;20034;-87
2022/04/23 09:14:28;;;;;;;8.13;5.10;;;;;;;16.93;58.58;97079.56;4987544;28;20211;-88
2022/04/23 09:25:42;;;;;;;9.50;5.57;;;;;;;17.06;56.17;97082.22;4988671;28;20380;-88
2022/04/23 09:28:17;;;;;;;10.45;5.35;;;;;;;17.17;56.84;97085.84;4987624;28;20153;-88
2022/04/23 09:30:44;;;;;;;9.45;5.97;;;;;;;17.09;56.73;97077.53;4988041;28;20027;-88
2022/04/23 09:33:10;;;;;;;8.30;5.95;;;;;;;16.51;57.95;97063.03;4988457;28;20045;-88
2022/04/23 09:35:35;;;;;;;7.70;4.93;;;;;;;16.97;57.60;97083.72;4988868;28;20027;-88
2022/04/23 09:38:20;;;;;;;9.55;6.00;;;;;;;17.22;56.74;97083.69;4988270;28;20054;-88
2022/04/23 09:40:54;;;;;;;8.60;5.28;;;;;;;16.87;58.02;97087.94;4988393;28;20026;-88
2022/04/23 09:43:31;;;;;;;8.60;5.43;;;;;;;16.74;57.80;97087.09;4989483;28;20218;-88
2022/04/23 09:46:00;;;;;;;9.73;5.80;;;;;;;16.82;58.55;97076.81;4988377;28;20033;-88
2022/04/23 09:48:25;;;;;;;7.88;5.57;;;;;;;17.20;57.53;97100.72;4988684;28;20039;-88
2022/04/23 09:50:51;;;;;;;13.13;4.70;;;;;;;17.40;56.52;97086.03;4988982;28;20334;-88
2022/04/23 09:53:21;;;;;;;6.95;4.85;;;;;;;17.92;55.68;97086.69;4986818;28;20018;-87
2022/04/23 09:55:48;;;;;;;8.65;5.13;;;;;;;17.70;55.56;97091.84;4987420;28;20408;-88
2022/04/23 09:58:15;;;;;;;8.60;5.20;;;;;;;17.50;55.92;97087.97;4988499;28;20046;-88
2022/04/23 10:00:42;;;;;;;7.75;5.35;;;;;;;17.24;56.70;97079.13;4986709;28;20137;-88
2022/04/23 10:03:09;;;;;;;10.43;5.35;;;;;;;17.78;57.34;97087.66;4987477;28;20029;-88
2022/04/23 10:05:45;;;;;;;6.05;4.72;;;;;;;18.50;54.92;97092.09;4987684;28;20026;-88
2022/04/23 10:08:12;;;;;;;12.70;5.05;;;;;;;18.15;54.68;97080.50;4986205;28;20046;-88
2022/04/23 10:10:50;;;;;;;8.70;5.30;;;;;;;18.02;55.45;97079.72;4987438;28;20098;-88
2022/04/23 10:13:16;;;;;;;6.93;4.63;;;;;;;17.94;54.55;97098.06;4985319;28;20271;-88
2022/04/23 10:15:47;;;;;;;8.10;5.25;;;;;;;18.29;54.22;97094.50;4985536;28;20077;-88
2022/04/23 10:18:13;;;;;;;8.02;5.03;;;;;;;18.24;54.78;97086.00;4982768;28;20026;-88
2022/04/23 10:20:53;;;;;;;6.40;4.55;;;;;;;18.25;54.88;97082.38;4988422;28;20308;-88
2022/04/23 10:23:46;;;;;;;9.57;4.80;;;;;;;18.27;54.55;97079.59;4987127;28;20023;-87
2022/04/23 10:26:20;;;;;;;5.85;4.00;;;;;;;18.23;54.04;97084.28;4981864;28;20085;-88
2022/04/23 10:28:48;;;;;;;7.90;5.40;;;;;;;17.66;55.25;97082.38;4985949;28;20097;-89
2022/04/23 10:31:15;;;;;;;7.15;5.20;;;;;;;17.89;54.47;97081.56;4985359;28;20035;-89
2022/04/23 10:33:54;;;;;;;7.38;4.30;;;;;;;17.62;55.13;97083.59;4985379;28;20306;-86
2022/04/23 10:36:27;;;;;;;7.72;5.65;;;;;;;17.05;56.02;97080.50;5140221;27;20128;-68
2022/04/23 10:39:24;;;;;;;8.35;5.07;;;;;;;17.76;56.33;97086.94;5125040;28;20020;-69
2022/04/23 10:41:51;;;;;;;7.00;4.97;;;;;;;17.17;57.66;97075.19;5123931;28;20024;-69
2022/04/23 10:44:21;;;;;;;7.45;4.85;;;;;;;17.31;57.34;97073.38;5123374;28;20024;-69
2022/04/23 10:46:46;;;;;;;7.88;5.30;;;;;;;17.65;56.23;97078.03;5123976;28;20092;-69
2022/04/23 10:49:25;;;;;;;7.07;4.97;;;;;;;18.03;55.39;97084.09;5131766;28;20026;-69
2022/04/23 10:51:55;;;;;;;7.85;5.10;;;;;;;17.48;55.58;97068.59;5139454;28;20043;-69
2022/04/23 10:54:41;;;;;;;6.32;4.43;;;;;;;17.74;54.97;97086.19;5123630;28;20042;-69
2022/04/23 10:57:07;;;;;;;7.25;5.05;;;;;;;18.12;55.06;97070.94;5123471;28;20027;-69
2022/04/23 10:59:38;;;;;;;6.32;4.32;;;;;;;18.49;54.72;97080.59;5122673;28;20028;-69
2022/04/23 11:02:06;;;;;;;6.45;4.80;;;;;;;18.39;54.96;97076.94;5123261;28;20219;-69
2022/04/23 11:04:35;;;;;;;7.32;5.10;;;;;;;18.47;56.17;97071.00;5123202;28;20016;-69
2022/04/23 11:12:38;;;;;;;7.15;4.60;;;;;;;18.72;54.72;97068.16;5122617;28;20054;-69
2022/04/23 11:15:15;;;;;;;5.65;4.13;;;;;;;18.89;54.27;97067.75;5116951;28;20020;-69
2022/04/23 11:17:46;;;;;;;6.20;4.40;;;;;;;18.68;54.39;97066.72;5109042;28;20230;-69
2022/04/23 11:20:12;;;;;;;6.60;4.53;;;;;;;18.66;55.19;97060.63;5104680;28;20051;-69
2022/04/23 11:22:37;;;;;;;8.15;4.93;;;;;;;18.31;54.80;97059.75;5102022;28;20024;-69
2022/04/23 11:25:04;;;;;;;6.25;4.63;;;;;;;17.81;54.81;97055.50;5116008;28;20019;-69
2022/04/23 11:27:40;;;;;;;7.53;4.40;;;;;;;17.61;55.27;97053.44;5105699;28;20028;-69
2022/04/23 11:30:07;;;;;;;6.53;4.45;;;;;;;17.58;57.02;97058.13;5113604;28;20069;-69
2022/04/23 11:32:34;;;;;;;5.95;3.85;;;;;;;17.89;58.06;97046.97;5109312;28;20091;-69
2022/04/23 11:35:01;;;;;;;11.45;4.78;;;;;;;17.80;56.98;97058.28;5111610;28;20036;-69
2022/04/23 11:37:31;;;;;;;7.35;3.90;;;;;;;17.69;57.37;97068.88;5111183;28;20020;-69
2022/04/23 11:40:11;;;;;;;6.32;4.40;;;;;;;17.16;57.63;97067.34;5110645;28;20066;-69
2022/04/23 11:42:36;;;;;;;6.35;3.90;;;;;;;16.57;59.07;97058.16;5110446;28;20019;-70
2022/04/23 11:45:02;;;;;;;14.13;4.18;;;;;;;16.91;58.18;97060.22;5113233;28;20419;-69
2022/04/23 11:47:30;;;;;;;6.35;4.05;;;;;;;16.81;58.09;97067.09;5098713;28;20024;-69
2022/04/23 11:50:07;;;;;;;5.28;3.80;;;;;;;16.59;59.95;97066.91;5097647;28;20020;-69